sensor_id;sensor_type;location;lat;lon;timestamp;temperature;humidity
80234;DHT22;69712;42.142;24.766;2023-07-13T00:00:27;28.60;45.50
80234;DHT22;69712;42.142;24.766;2023-07-13T00:02:53;28.50;45.50
80234;DHT22;69712;42.142;24.766;2023-07-13T00:05:20;28.40;45.60
80234;DHT22;69712;42.142;24.766;2023-07-13T00:07:46;28.30;45.80
80234;DHT22;69712;42.142;24.766;2023-07-13T00:10:12;28.30;45.80
80234;DHT22;69712;42.142;24.766;2023-07-13T00:12:38;28.40;45.50
80234;DHT22;69712;42.142;24.766;2023-07-13T00:15:09;28.40;45.80
80234;DHT22;69712;42.142;24.766;2023-07-13T00:17:37;28.30;45.90
80234;DHT22;69712;42.142;24.766;2023-07-13T00:20:05;28.10;46.30
80234;DHT22;69712;42.142;24.766;2023-07-13T00:22:32;28.20;46.40
80234;DHT22;69712;42.142;24.766;2023-07-13T00:24:57;28.20;46.40
80234;DHT22;69712;42.142;24.766;2023-07-13T00:27:24;28.30;46.10
80234;DHT22;69712;42.142;24.766;2023-07-13T00:29:52;28.30;46.30
80234;DHT22;69712;42.142;24.766;2023-07-13T00:32:18;28.30;46.10
80234;DHT22;69712;42.142;24.766;2023-07-13T00:34:44;28.30;46.10
80234;DHT22;69712;42.142;24.766;2023-07-13T00:37:10;28.30;46.00
80234;DHT22;69712;42.142;24.766;2023-07-13T00:39:36;28.30;45.90
80234;DHT22;69712;42.142;24.766;2023-07-13T00:42:03;28.20;45.90
80234;DHT22;69712;42.142;24.766;2023-07-13T00:44:30;28.10;46.20
80234;DHT22;69712;42.142;24.766;2023-07-13T00:46:56;28.20;46.30
80234;DHT22;69712;42.142;24.766;2023-07-13T00:49:25;28.30;46.20
80234;DHT22;69712;42.142;24.766;2023-07-13T00:51:59;28.30;46.10
80234;DHT22;69712;42.142;24.766;2023-07-13T00:54:37;28.20;46.30
80234;DHT22;69712;42.142;24.766;2023-07-13T00:57:06;28.20;46.30
80234;DHT22;69712;42.142;24.766;2023-07-13T00:59:34;28.20;46.30
80234;DHT22;69712;42.142;24.766;2023-07-13T01:02:00;28.20;46.10
80234;DHT22;69712;42.142;24.766;2023-07-13T01:04:26;28.10;47.30
80234;DHT22;69712;42.142;24.766;2023-07-13T01:06:53;28.10;46.40
80234;DHT22;69712;42.142;24.766;2023-07-13T01:09:19;28.00;46.10
80234;DHT22;69712;42.142;24.766;2023-07-13T01:11:46;27.90;46.40
80234;DHT22;69712;42.142;24.766;2023-07-13T01:14:13;27.90;46.70
80234;DHT22;69712;42.142;24.766;2023-07-13T01:16:41;27.70;47.00
80234;DHT22;69712;42.142;24.766;2023-07-13T01:25:16;27.70;47.80
80234;DHT22;69712;42.142;24.766;2023-07-13T01:27:42;27.70;48.20
80234;DHT22;69712;42.142;24.766;2023-07-13T01:30:07;27.50;48.60
80234;DHT22;69712;42.142;24.766;2023-07-13T01:32:44;27.50;48.70
80234;DHT22;69712;42.142;24.766;2023-07-13T01:35:09;27.50;48.70
80234;DHT22;69712;42.142;24.766;2023-07-13T01:37:38;27.40;48.70
80234;DHT22;69712;42.142;24.766;2023-07-13T01:40:04;27.50;46.00
80234;DHT22;69712;42.142;24.766;2023-07-13T01:42:30;27.40;45.60
80234;DHT22;69712;42.142;24.766;2023-07-13T01:44:56;27.50;45.70
80234;DHT22;69712;42.142;24.766;2023-07-13T01:47:22;27.50;45.60
80234;DHT22;69712;42.142;24.766;2023-07-13T01:49:49;27.60;45.40
80234;DHT22;69712;42.142;24.766;2023-07-13T01:52:17;27.70;45.30
80234;DHT22;69712;42.142;24.766;2023-07-13T01:54:43;27.70;45.20
80234;DHT22;69712;42.142;24.766;2023-07-13T01:57:08;27.70;45.20
80234;DHT22;69712;42.142;24.766;2023-07-13T01:59:34;27.60;45.40
80234;DHT22;69712;42.142;24.766;2023-07-13T02:02:00;27.50;45.60
80234;DHT22;69712;42.142;24.766;2023-07-13T02:04:25;27.70;45.30
80234;DHT22;69712;42.142;24.766;2023-07-13T02:06:51;27.60;45.30
80234;DHT22;69712;42.142;24.766;2023-07-13T02:09:17;27.50;45.60
80234;DHT22;69712;42.142;24.766;2023-07-13T02:11:42;27.40;45.80
80234;DHT22;69712;42.142;24.766;2023-07-13T02:14:08;27.50;45.90
80234;DHT22;69712;42.142;24.766;2023-07-13T02:16:34;27.60;45.80
80234;DHT22;69712;42.142;24.766;2023-07-13T02:18:59;27.50;45.70
80234;DHT22;69712;42.142;24.766;2023-07-13T02:21:26;27.60;45.60
80234;DHT22;69712;42.142;24.766;2023-07-13T02:23:52;27.50;46.00
80234;DHT22;69712;42.142;24.766;2023-07-13T02:26:18;27.40;46.10
80234;DHT22;69712;42.142;24.766;2023-07-13T02:28:43;27.40;46.30
80234;DHT22;69712;42.142;24.766;2023-07-13T02:31:12;27.40;46.20
80234;DHT22;69712;42.142;24.766;2023-07-13T02:33:38;27.30;46.40
80234;DHT22;69712;42.142;24.766;2023-07-13T02:36:04;27.30;46.70
80234;DHT22;69712;42.142;24.766;2023-07-13T02:38:34;27.40;46.50
80234;DHT22;69712;42.142;24.766;2023-07-13T02:41:02;27.40;46.60
80234;DHT22;69712;42.142;24.766;2023-07-13T02:43:27;27.30;46.50
80234;DHT22;69712;42.142;24.766;2023-07-13T02:45:53;27.30;46.90
80234;DHT22;69712;42.142;24.766;2023-07-13T02:48:19;26.90;47.70
80234;DHT22;69712;42.142;24.766;2023-07-13T02:50:44;27.00;47.70
80234;DHT22;69712;42.142;24.766;2023-07-13T02:53:10;27.00;47.20
80234;DHT22;69712;42.142;24.766;2023-07-13T02:55:36;27.10;47.00
80234;DHT22;69712;42.142;24.766;2023-07-13T02:58:02;27.10;46.80
80234;DHT22;69712;42.142;24.766;2023-07-13T03:00:28;26.70;47.60
80234;DHT22;69712;42.142;24.766;2023-07-13T03:02:54;26.80;47.70
80234;DHT22;69712;42.142;24.766;2023-07-13T03:05:22;26.80;47.60
80234;DHT22;69712;42.142;24.766;2023-07-13T03:07:50;26.80;47.50
80234;DHT22;69712;42.142;24.766;2023-07-13T03:10:15;26.80;47.10
80234;DHT22;69712;42.142;24.766;2023-07-13T03:12:42;27.00;48.00
80234;DHT22;69712;42.142;24.766;2023-07-13T03:15:08;26.80;48.20
80234;DHT22;69712;42.142;24.766;2023-07-13T03:17:33;26.90;47.50
80234;DHT22;69712;42.142;24.766;2023-07-13T03:19:59;26.80;48.20
80234;DHT22;69712;42.142;24.766;2023-07-13T03:22:25;26.80;47.10
80234;DHT22;69712;42.142;24.766;2023-07-13T03:24:50;26.90;46.80
80234;DHT22;69712;42.142;24.766;2023-07-13T03:27:17;26.90;46.80
80234;DHT22;69712;42.142;24.766;2023-07-13T03:29:43;26.90;46.70
80234;DHT22;69712;42.142;24.766;2023-07-13T03:32:09;27.00;46.00
80234;DHT22;69712;42.142;24.766;2023-07-13T03:34:35;27.10;46.10
80234;DHT22;69712;42.142;24.766;2023-07-13T03:37:01;27.10;46.10
80234;DHT22;69712;42.142;24.766;2023-07-13T03:39:26;27.10;46.00
80234;DHT22;69712;42.142;24.766;2023-07-13T03:41:52;27.10;46.00
80234;DHT22;69712;42.142;24.766;2023-07-13T03:44:18;27.20;46.20
80234;DHT22;69712;42.142;24.766;2023-07-13T03:46:45;27.30;45.90
80234;DHT22;69712;42.142;24.766;2023-07-13T03:49:11;27.30;45.60
80234;DHT22;69712;42.142;24.766;2023-07-13T03:51:37;27.30;45.60
80234;DHT22;69712;42.142;24.766;2023-07-13T03:54:03;27.30;45.40
80234;DHT22;69712;42.142;24.766;2023-07-13T03:56:29;27.30;44.90
80234;DHT22;69712;42.142;24.766;2023-07-13T03:58:59;27.30;44.90
80234;DHT22;69712;42.142;24.766;2023-07-13T04:01:26;27.40;44.90
80234;DHT22;69712;42.142;24.766;2023-07-13T04:03:52;27.40;44.70
80234;DHT22;69712;42.142;24.766;2023-07-13T04:06:20;27.40;44.80
80234;DHT22;69712;42.142;24.766;2023-07-13T04:08:51;27.40;45.10
80234;DHT22;69712;42.142;24.766;2023-07-13T04:11:19;27.50;44.50
80234;DHT22;69712;42.142;24.766;2023-07-13T04:13:45;27.60;44.70
80234;DHT22;69712;42.142;24.766;2023-07-13T04:16:11;27.50;44.70
80234;DHT22;69712;42.142;24.766;2023-07-13T04:18:37;27.50;44.80
80234;DHT22;69712;42.142;24.766;2023-07-13T04:21:03;27.70;44.60
80234;DHT22;69712;42.142;24.766;2023-07-13T04:23:29;27.60;44.30
80234;DHT22;69712;42.142;24.766;2023-07-13T04:25:54;27.80;44.30
80234;DHT22;69712;42.142;24.766;2023-07-13T04:28:24;27.80;44.20
80234;DHT22;69712;42.142;24.766;2023-07-13T04:31:12;27.80;44.30
80234;DHT22;69712;42.142;24.766;2023-07-13T04:33:45;27.70;45.10
80234;DHT22;69712;42.142;24.766;2023-07-13T04:36:11;27.50;45.30
80234;DHT22;69712;42.142;24.766;2023-07-13T04:38:37;27.40;45.80
80234;DHT22;69712;42.142;24.766;2023-07-13T04:41:05;27.30;45.80
80234;DHT22;69712;42.142;24.766;2023-07-13T04:43:32;27.60;45.60
80234;DHT22;69712;42.142;24.766;2023-07-13T04:46:06;27.60;45.50
80234;DHT22;69712;42.142;24.766;2023-07-13T04:48:32;27.70;45.50
80234;DHT22;69712;42.142;24.766;2023-07-13T04:50:59;27.80;45.10
80234;DHT22;69712;42.142;24.766;2023-07-13T04:53:25;27.70;45.40
80234;DHT22;69712;42.142;24.766;2023-07-13T04:55:51;27.80;45.40
80234;DHT22;69712;42.142;24.766;2023-07-13T04:58:17;27.80;45.70
80234;DHT22;69712;42.142;24.766;2023-07-13T05:00:42;27.80;46.50
80234;DHT22;69712;42.142;24.766;2023-07-13T05:03:08;27.90;45.40
80234;DHT22;69712;42.142;24.766;2023-07-13T05:05:34;28.00;44.60
80234;DHT22;69712;42.142;24.766;2023-07-13T05:07:59;28.00;44.10
80234;DHT22;69712;42.142;24.766;2023-07-13T05:10:25;28.10;43.90
80234;DHT22;69712;42.142;24.766;2023-07-13T05:12:51;28.20;43.70
80234;DHT22;69712;42.142;24.766;2023-07-13T05:15:17;28.30;43.40
80234;DHT22;69712;42.142;24.766;2023-07-13T05:17:47;28.30;43.50
80234;DHT22;69712;42.142;24.766;2023-07-13T05:20:13;28.40;43.20
80234;DHT22;69712;42.142;24.766;2023-07-13T05:22:38;28.50;43.20
80234;DHT22;69712;42.142;24.766;2023-07-13T05:25:06;28.50;44.10
80234;DHT22;69712;42.142;24.766;2023-07-13T05:27:33;28.50;42.80
80234;DHT22;69712;42.142;24.766;2023-07-13T05:29:58;28.70;42.90
80234;DHT22;69712;42.142;24.766;2023-07-13T05:32:24;28.70;43.30
80234;DHT22;69712;42.142;24.766;2023-07-13T05:34:50;28.70;43.60
80234;DHT22;69712;42.142;24.766;2023-07-13T05:37:15;28.70;42.70
80234;DHT22;69712;42.142;24.766;2023-07-13T05:39:41;28.80;42.70
80234;DHT22;69712;42.142;24.766;2023-07-13T05:42:08;28.90;42.90
80234;DHT22;69712;42.142;24.766;2023-07-13T05:44:54;29.00;42.80
80234;DHT22;69712;42.142;24.766;2023-07-13T05:47:20;28.90;42.90
80234;DHT22;69712;42.142;24.766;2023-07-13T05:49:45;28.70;43.00
80234;DHT22;69712;42.142;24.766;2023-07-13T05:52:11;28.70;42.90
80234;DHT22;69712;42.142;24.766;2023-07-13T05:54:36;28.90;42.50
80234;DHT22;69712;42.142;24.766;2023-07-13T05:57:02;29.10;42.10
80234;DHT22;69712;42.142;24.766;2023-07-13T05:59:28;29.20;41.80
80234;DHT22;69712;42.142;24.766;2023-07-13T06:01:53;29.30;41.50
80234;DHT22;69712;42.142;24.766;2023-07-13T06:04:19;29.40;41.30
80234;DHT22;69712;42.142;24.766;2023-07-13T06:06:45;29.50;41.40
80234;DHT22;69712;42.142;24.766;2023-07-13T06:09:11;29.50;41.60
80234;DHT22;69712;42.142;24.766;2023-07-13T06:11:37;29.50;41.60
80234;DHT22;69712;42.142;24.766;2023-07-13T06:14:02;29.70;41.70
80234;DHT22;69712;42.142;24.766;2023-07-13T06:16:29;29.80;41.40
80234;DHT22;69712;42.142;24.766;2023-07-13T06:18:55;29.70;41.00
80234;DHT22;69712;42.142;24.766;2023-07-13T06:21:22;29.60;41.20
80234;DHT22;69712;42.142;24.766;2023-07-13T06:23:49;29.60;41.40
80234;DHT22;69712;42.142;24.766;2023-07-13T06:26:17;29.80;41.10
80234;DHT22;69712;42.142;24.766;2023-07-13T06:28:43;30.20;40.70
80234;DHT22;69712;42.142;24.766;2023-07-13T06:31:10;30.80;39.50
80234;DHT22;69712;42.142;24.766;2023-07-13T06:33:36;31.30;38.10
80234;DHT22;69712;42.142;24.766;2023-07-13T06:36:04;32.00;37.00
80234;DHT22;69712;42.142;24.766;2023-07-13T06:38:31;33.20;34.80
80234;DHT22;69712;42.142;24.766;2023-07-13T06:40:57;34.70;32.60
80234;DHT22;69712;42.142;24.766;2023-07-13T06:43:22;36.40;30.00
80234;DHT22;69712;42.142;24.766;2023-07-13T06:45:50;37.20;28.40
80234;DHT22;69712;42.142;24.766;2023-07-13T06:48:17;38.50;26.60
80234;DHT22;69712;42.142;24.766;2023-07-13T06:50:44;40.00;25.80
80234;DHT22;69712;42.142;24.766;2023-07-13T06:53:10;40.70;25.00
80234;DHT22;69712;42.142;24.766;2023-07-13T06:55:36;41.20;24.20
80234;DHT22;69712;42.142;24.766;2023-07-13T06:58:02;42.10;23.50
80234;DHT22;69712;42.142;24.766;2023-07-13T07:00:28;43.10;22.70
80234;DHT22;69712;42.142;24.766;2023-07-13T07:02:54;43.20;22.50
80234;DHT22;69712;42.142;24.766;2023-07-13T07:05:19;42.70;22.50
80234;DHT22;69712;42.142;24.766;2023-07-13T07:07:48;43.60;22.10
80234;DHT22;69712;42.142;24.766;2023-07-13T07:10:13;43.90;21.90
80234;DHT22;69712;42.142;24.766;2023-07-13T07:12:39;44.30;21.00
80234;DHT22;69712;42.142;24.766;2023-07-13T07:15:05;44.50;20.90
80234;DHT22;69712;42.142;24.766;2023-07-13T07:17:31;44.60;21.20
80234;DHT22;69712;42.142;24.766;2023-07-13T07:19:56;44.40;21.30
80234;DHT22;69712;42.142;24.766;2023-07-13T07:22:22;44.00;21.00
80234;DHT22;69712;42.142;24.766;2023-07-13T07:24:48;44.10;21.60
80234;DHT22;69712;42.142;24.766;2023-07-13T07:27:13;44.60;21.20
80234;DHT22;69712;42.142;24.766;2023-07-13T07:29:39;44.00;21.80
80234;DHT22;69712;42.142;24.766;2023-07-13T07:32:05;44.80;21.20
80234;DHT22;69712;42.142;24.766;2023-07-13T07:34:31;45.40;20.50
80234;DHT22;69712;42.142;24.766;2023-07-13T07:37:00;45.90;20.00
80234;DHT22;69712;42.142;24.766;2023-07-13T07:39:26;42.80;21.80
80234;DHT22;69712;42.142;24.766;2023-07-13T07:41:52;43.50;21.70
80234;DHT22;69712;42.142;24.766;2023-07-13T07:44:18;44.50;21.10
80234;DHT22;69712;42.142;24.766;2023-07-13T07:46:43;44.70;21.00
80234;DHT22;69712;42.142;24.766;2023-07-13T07:49:09;45.20;20.70
80234;DHT22;69712;42.142;24.766;2023-07-13T07:51:36;44.90;20.50
80234;DHT22;69712;42.142;24.766;2023-07-13T07:54:03;44.60;20.50
80234;DHT22;69712;42.142;24.766;2023-07-13T07:56:29;45.00;20.40
80234;DHT22;69712;42.142;24.766;2023-07-13T07:58:55;44.50;20.90
80234;DHT22;69712;42.142;24.766;2023-07-13T08:01:21;44.80;20.10
80234;DHT22;69712;42.142;24.766;2023-07-13T08:03:47;44.10;20.90
80234;DHT22;69712;42.142;24.766;2023-07-13T08:06:12;44.80;20.80
80234;DHT22;69712;42.142;24.766;2023-07-13T08:08:38;45.40;19.90
80234;DHT22;69712;42.142;24.766;2023-07-13T08:11:05;46.00;19.70
80234;DHT22;69712;42.142;24.766;2023-07-13T08:13:32;46.50;19.00
80234;DHT22;69712;42.142;24.766;2023-07-13T08:15:58;45.70;19.30
80234;DHT22;69712;42.142;24.766;2023-07-13T08:18:24;46.70;19.20
80234;DHT22;69712;42.142;24.766;2023-07-13T08:20:50;46.10;18.70
80234;DHT22;69712;42.142;24.766;2023-07-13T08:23:15;44.50;19.80
80234;DHT22;69712;42.142;24.766;2023-07-13T08:25:42;44.90;20.80
80234;DHT22;69712;42.142;24.766;2023-07-13T08:28:08;44.90;19.90
80234;DHT22;69712;42.142;24.766;2023-07-13T08:30:34;46.20;19.30
80234;DHT22;69712;42.142;24.766;2023-07-13T08:33:01;46.80;19.00
80234;DHT22;69712;42.142;24.766;2023-07-13T08:35:27;47.10;18.70
80234;DHT22;69712;42.142;24.766;2023-07-13T08:37:53;46.70;19.00
80234;DHT22;69712;42.142;24.766;2023-07-13T08:40:25;47.20;18.80
80234;DHT22;69712;42.142;24.766;2023-07-13T08:48:53;46.60;19.10
80234;DHT22;69712;42.142;24.766;2023-07-13T08:51:41;46.20;18.30
80234;DHT22;69712;42.142;24.766;2023-07-13T08:54:36;47.10;18.60
80234;DHT22;69712;42.142;24.766;2023-07-13T08:57:13;46.80;18.30
80234;DHT22;69712;42.142;24.766;2023-07-13T08:59:39;46.60;18.50
80234;DHT22;69712;42.142;24.766;2023-07-13T09:05:04;47.20;17.80
80234;DHT22;69712;42.142;24.766;2023-07-13T09:10:27;46.00;17.60
80234;DHT22;69712;42.142;24.766;2023-07-13T09:15:52;45.40;19.10
80234;DHT22;69712;42.142;24.766;2023-07-13T09:18:32;44.00;19.90
80234;DHT22;69712;42.142;24.766;2023-07-13T09:21:10;45.30;19.50
80234;DHT22;69712;42.142;24.766;2023-07-13T09:23:38;45.80;18.70
80234;DHT22;69712;42.142;24.766;2023-07-13T09:26:14;46.50;18.60
80234;DHT22;69712;42.142;24.766;2023-07-13T09:28:47;46.70;18.20
80234;DHT22;69712;42.142;24.766;2023-07-13T09:31:31;47.50;17.40
80234;DHT22;69712;42.142;24.766;2023-07-13T09:33:59;48.10;17.60
80234;DHT22;69712;42.142;24.766;2023-07-13T09:36:30;48.80;16.40
80234;DHT22;69712;42.142;24.766;2023-07-13T09:41:59;49.40;16.30
80234;DHT22;69712;42.142;24.766;2023-07-13T09:44:36;46.20;17.90
80234;DHT22;69712;42.142;24.766;2023-07-13T09:47:15;46.90;18.20
80234;DHT22;69712;42.142;24.766;2023-07-13T09:49:42;46.40;18.60
80234;DHT22;69712;42.142;24.766;2023-07-13T09:52:12;47.30;17.20
80234;DHT22;69712;42.142;24.766;2023-07-13T09:54:43;48.10;16.60
80234;DHT22;69712;42.142;24.766;2023-07-13T09:57:14;48.00;16.80
80234;DHT22;69712;42.142;24.766;2023-07-13T09:59:44;45.40;17.80
80234;DHT22;69712;42.142;24.766;2023-07-13T10:02:34;45.20;18.00
80234;DHT22;69712;42.142;24.766;2023-07-13T10:07:25;43.30;19.40
80234;DHT22;69712;42.142;24.766;2023-07-13T10:09:55;42.00;20.40
80234;DHT22;69712;42.142;24.766;2023-07-13T10:12:22;43.00;20.00
80234;DHT22;69712;42.142;24.766;2023-07-13T10:14:52;45.30;19.20
80234;DHT22;69712;42.142;24.766;2023-07-13T10:17:29;45.30;18.80
80234;DHT22;69712;42.142;24.766;2023-07-13T10:20:01;46.50;18.50
80234;DHT22;69712;42.142;24.766;2023-07-13T10:25:25;47.70;17.00
80234;DHT22;69712;42.142;24.766;2023-07-13T10:28:27;47.00;16.90
80234;DHT22;69712;42.142;24.766;2023-07-13T10:30:55;46.50;16.70
80234;DHT22;69712;42.142;24.766;2023-07-13T10:33:25;47.20;16.00
80234;DHT22;69712;42.142;24.766;2023-07-13T10:36:32;47.40;15.50
80234;DHT22;69712;42.142;24.766;2023-07-13T10:39:02;46.30;15.80
80234;DHT22;69712;42.142;24.766;2023-07-13T10:41:30;46.00;16.00
80234;DHT22;69712;42.142;24.766;2023-07-13T10:43:57;46.10;15.60
80234;DHT22;69712;42.142;24.766;2023-07-13T10:46:26;46.10;15.70
80234;DHT22;69712;42.142;24.766;2023-07-13T10:48:56;46.00;15.40
80234;DHT22;69712;42.142;24.766;2023-07-13T10:51:23;46.40;15.70
80234;DHT22;69712;42.142;24.766;2023-07-13T10:56:45;45.60;16.10
80234;DHT22;69712;42.142;24.766;2023-07-13T10:59:29;45.10;16.50
80234;DHT22;69712;42.142;24.766;2023-07-13T11:04:47;45.80;16.30
80234;DHT22;69712;42.142;24.766;2023-07-13T11:07:21;45.80;16.20
80234;DHT22;69712;42.142;24.766;2023-07-13T11:09:52;45.90;16.10
80234;DHT22;69712;42.142;24.766;2023-07-13T11:25:35;46.60;15.00
80234;DHT22;69712;42.142;24.766;2023-07-13T11:41:04;46.80;15.00
80234;DHT22;69712;42.142;24.766;2023-07-13T11:43:31;47.40;14.50
80234;DHT22;69712;42.142;24.766;2023-07-13T11:46:12;47.60;14.10
80234;DHT22;69712;42.142;24.766;2023-07-13T11:48:38;47.80;14.20
80234;DHT22;69712;42.142;24.766;2023-07-13T11:51:06;48.10;14.00
80234;DHT22;69712;42.142;24.766;2023-07-13T11:53:44;48.30;14.00
80234;DHT22;69712;42.142;24.766;2023-07-13T11:56:10;47.90;13.90
80234;DHT22;69712;42.142;24.766;2023-07-13T11:58:36;47.60;14.30
80234;DHT22;69712;42.142;24.766;2023-07-13T12:01:03;48.10;14.20
80234;DHT22;69712;42.142;24.766;2023-07-13T12:03:35;47.30;13.80
80234;DHT22;69712;42.142;24.766;2023-07-13T12:06:25;47.60;14.10
80234;DHT22;69712;42.142;24.766;2023-07-13T12:08:57;47.70;14.00
80234;DHT22;69712;42.142;24.766;2023-07-13T12:11:23;47.70;13.90
80234;DHT22;69712;42.142;24.766;2023-07-13T12:13:50;46.90;14.00
80234;DHT22;69712;42.142;24.766;2023-07-13T12:16:25;46.60;14.70
80234;DHT22;69712;42.142;24.766;2023-07-13T12:18:52;46.80;14.30
80234;DHT22;69712;42.142;24.766;2023-07-13T12:21:22;45.40;14.60
80234;DHT22;69712;42.142;24.766;2023-07-13T12:23:49;45.20;15.40
80234;DHT22;69712;42.142;24.766;2023-07-13T12:26:16;44.60;16.20
80234;DHT22;69712;42.142;24.766;2023-07-13T12:28:49;43.30;17.80
80234;DHT22;69712;42.142;24.766;2023-07-13T12:31:33;42.80;18.30
80234;DHT22;69712;42.142;24.766;2023-07-13T12:36:31;41.60;19.30
80234;DHT22;69712;42.142;24.766;2023-07-13T12:39:00;41.70;18.90
80234;DHT22;69712;42.142;24.766;2023-07-13T12:41:29;41.10;19.80
80234;DHT22;69712;42.142;24.766;2023-07-13T12:43:55;41.20;20.00
80234;DHT22;69712;42.142;24.766;2023-07-13T12:46:24;41.40;20.00
80234;DHT22;69712;42.142;24.766;2023-07-13T12:48:53;41.20;19.20
80234;DHT22;69712;42.142;24.766;2023-07-13T12:51:23;41.70;19.40
80234;DHT22;69712;42.142;24.766;2023-07-13T12:53:57;41.80;18.80
80234;DHT22;69712;42.142;24.766;2023-07-13T12:56:26;41.60;19.30
80234;DHT22;69712;42.142;24.766;2023-07-13T12:58:58;42.80;18.90
80234;DHT22;69712;42.142;24.766;2023-07-13T13:01:27;41.70;18.00
80234;DHT22;69712;42.142;24.766;2023-07-13T13:03:54;42.80;18.40
80234;DHT22;69712;42.142;24.766;2023-07-13T13:06:26;42.80;18.10
80234;DHT22;69712;42.142;24.766;2023-07-13T13:08:55;43.50;18.10
80234;DHT22;69712;42.142;24.766;2023-07-13T13:11:22;44.20;17.60
80234;DHT22;69712;42.142;24.766;2023-07-13T13:13:49;44.20;17.50
80234;DHT22;69712;42.142;24.766;2023-07-13T13:18:44;44.80;17.00
80234;DHT22;69712;42.142;24.766;2023-07-13T13:21:10;44.20;16.90
80234;DHT22;69712;42.142;24.766;2023-07-13T13:23:36;43.20;17.30
80234;DHT22;69712;42.142;24.766;2023-07-13T13:26:04;43.50;17.50
80234;DHT22;69712;42.142;24.766;2023-07-13T13:28:31;43.60;17.20
80234;DHT22;69712;42.142;24.766;2023-07-13T13:30:57;42.60;17.90
80234;DHT22;69712;42.142;24.766;2023-07-13T13:33:23;42.40;18.10
80234;DHT22;69712;42.142;24.766;2023-07-13T13:35:49;43.30;17.50
80234;DHT22;69712;42.142;24.766;2023-07-13T13:38:21;43.50;17.10
80234;DHT22;69712;42.142;24.766;2023-07-13T13:40:49;42.90;17.00
80234;DHT22;69712;42.142;24.766;2023-07-13T13:43:22;43.40;17.20
80234;DHT22;69712;42.142;24.766;2023-07-13T13:45:52;44.30;16.70
80234;DHT22;69712;42.142;24.766;2023-07-13T13:48:31;45.00;16.10
80234;DHT22;69712;42.142;24.766;2023-07-13T13:50:58;44.90;16.00
80234;DHT22;69712;42.142;24.766;2023-07-13T13:53:25;43.20;17.60
80234;DHT22;69712;42.142;24.766;2023-07-13T13:55:51;42.50;18.20
80234;DHT22;69712;42.142;24.766;2023-07-13T13:58:18;41.90;18.50
80234;DHT22;69712;42.142;24.766;2023-07-13T14:00:44;41.70;18.90
80234;DHT22;69712;42.142;24.766;2023-07-13T14:03:20;40.50;19.40
80234;DHT22;69712;42.142;24.766;2023-07-13T14:05:48;40.00;19.90
80234;DHT22;69712;42.142;24.766;2023-07-13T14:08:16;39.90;20.00
80234;DHT22;69712;42.142;24.766;2023-07-13T14:10:45;40.00;20.40
80234;DHT22;69712;42.142;24.766;2023-07-13T14:13:35;39.80;20.70
80234;DHT22;69712;42.142;24.766;2023-07-13T14:16:01;39.60;20.40
80234;DHT22;69712;42.142;24.766;2023-07-13T14:18:28;39.50;20.50
80234;DHT22;69712;42.142;24.766;2023-07-13T14:20:53;39.00;20.70
80234;DHT22;69712;42.142;24.766;2023-07-13T14:23:19;39.10;20.70
80234;DHT22;69712;42.142;24.766;2023-07-13T14:25:48;38.80;20.90
80234;DHT22;69712;42.142;24.766;2023-07-13T14:28:24;38.70;21.10
80234;DHT22;69712;42.142;24.766;2023-07-13T14:30:50;38.60;21.20
80234;DHT22;69712;42.142;24.766;2023-07-13T14:33:16;38.60;21.40
80234;DHT22;69712;42.142;24.766;2023-07-13T14:35:42;38.80;22.10
80234;DHT22;69712;42.142;24.766;2023-07-13T14:38:19;38.70;21.10
80234;DHT22;69712;42.142;24.766;2023-07-13T14:40:45;38.80;21.60
80234;DHT22;69712;42.142;24.766;2023-07-13T14:43:13;38.80;20.80
80234;DHT22;69712;42.142;24.766;2023-07-13T14:45:49;38.80;21.20
80234;DHT22;69712;42.142;24.766;2023-07-13T14:48:22;38.70;21.10
80234;DHT22;69712;42.142;24.766;2023-07-13T14:50:55;38.60;21.20
80234;DHT22;69712;42.142;24.766;2023-07-13T14:53:22;38.60;21.20
80234;DHT22;69712;42.142;24.766;2023-07-13T14:55:48;38.60;21.40
80234;DHT22;69712;42.142;24.766;2023-07-13T14:58:14;38.50;21.10
80234;DHT22;69712;42.142;24.766;2023-07-13T15:00:40;38.60;21.10
80234;DHT22;69712;42.142;24.766;2023-07-13T15:03:17;38.70;21.10
80234;DHT22;69712;42.142;24.766;2023-07-13T15:05:46;38.80;21.00
80234;DHT22;69712;42.142;24.766;2023-07-13T15:08:12;38.50;21.10
80234;DHT22;69712;42.142;24.766;2023-07-13T15:10:38;38.50;21.00
80234;DHT22;69712;42.142;24.766;2023-07-13T15:13:17;38.40;21.40
80234;DHT22;69712;42.142;24.766;2023-07-13T15:15:47;38.30;21.00
80234;DHT22;69712;42.142;24.766;2023-07-13T15:18:15;38.30;21.60
80234;DHT22;69712;42.142;24.766;2023-07-13T15:20:44;38.30;21.80
80234;DHT22;69712;42.142;24.766;2023-07-13T15:23:11;38.30;21.50
80234;DHT22;69712;42.142;24.766;2023-07-13T15:25:37;38.20;21.00
80234;DHT22;69712;42.142;24.766;2023-07-13T15:28:04;38.10;21.30
80234;DHT22;69712;42.142;24.766;2023-07-13T15:30:32;38.20;21.60
80234;DHT22;69712;42.142;24.766;2023-07-13T15:33:12;38.20;21.70
80234;DHT22;69712;42.142;24.766;2023-07-13T15:35:38;38.30;21.50
80234;DHT22;69712;42.142;24.766;2023-07-13T15:38:33;38.30;21.30
80234;DHT22;69712;42.142;24.766;2023-07-13T15:41:19;38.40;21.00
80234;DHT22;69712;42.142;24.766;2023-07-13T15:43:49;38.40;21.30
80234;DHT22;69712;42.142;24.766;2023-07-13T15:46:20;38.30;21.00
80234;DHT22;69712;42.142;24.766;2023-07-13T15:48:48;38.20;21.20
80234;DHT22;69712;42.142;24.766;2023-07-13T15:51:25;38.20;21.30
80234;DHT22;69712;42.142;24.766;2023-07-13T15:53:54;38.20;21.50
80234;DHT22;69712;42.142;24.766;2023-07-13T15:56:33;38.20;21.30
80234;DHT22;69712;42.142;24.766;2023-07-13T15:58:59;38.00;21.30
80234;DHT22;69712;42.142;24.766;2023-07-13T16:01:26;38.10;21.60
80234;DHT22;69712;42.142;24.766;2023-07-13T16:03:52;38.00;21.60
80234;DHT22;69712;42.142;24.766;2023-07-13T16:06:28;37.90;21.50
80234;DHT22;69712;42.142;24.766;2023-07-13T16:08:54;37.90;21.90
80234;DHT22;69712;42.142;24.766;2023-07-13T16:11:29;37.90;22.30
80234;DHT22;69712;42.142;24.766;2023-07-13T16:13:56;37.90;22.20
80234;DHT22;69712;42.142;24.766;2023-07-13T16:16:29;37.80;22.40
80234;DHT22;69712;42.142;24.766;2023-07-13T16:18:56;37.80;22.90
80234;DHT22;69712;42.142;24.766;2023-07-13T16:21:34;37.80;22.70
80234;DHT22;69712;42.142;24.766;2023-07-13T16:24:01;37.70;22.70
80234;DHT22;69712;42.142;24.766;2023-07-13T16:26:28;37.70;22.20
80234;DHT22;69712;42.142;24.766;2023-07-13T16:29:15;37.70;22.60